Main page
METAR-TAF:

METAR-TAF

Airports :

Hong Kong International Airport

Hong Kong, China

latitude: 22-19N, longitude: 113-55E, elevation: 9 m

Current weather observation

The report was made 33 minutes ago, at 05:00 UTC
Wind 15 kt from the North
Temperature 19°C
Humidity 24%
Pressure 1024 hPa
Visibility 10 km or more
no clouds below 1500 m and no cumulonimbus

METAR: VHHH 060500Z 35015KT CAVOK 19/M02 Q1024 NOSIG

Time: 13:33 (05:33 UTC)

Forecast

The report was made 33 minutes ago, at 05:00 UTC
Forecast valid from 06 at 06 UTC to 07 at 12 UTC
Wind 15 kt from the North
Visibility 10 km or more
no clouds below 1500 m and no cumulonimbus

TAF: VHHH 060500Z 0606/0712 01015KT CAVOK TX20/0606Z TX20/0706Z TN13/0623Z

Weather observations and forecasts of more than 4000 airports (METAR and TAF reports).

The available stations are represented by yellow and red dots on the map.

Hover mouse over dot to see the name of the station.

Then click to see weather observations and forecasts.

To change the map : click on the green buttons with a black cross to zoom in, on the green button with a dash to zoom out, or on the green arrows for adjacent maps.


METAR-TAF: